KTTN/TTN METAR and TAF weather

Enter ICAO airport designator
Station Type Date Time Source
KTTN METAR 2022/12/08 12:53 UTC NOAA

KTTN 081253Z 00000KT 10SM CLR 09/04 A3024 RMK AO2 SLP235 T00890039


Station Type Date Time Source
KTTN Decoded METAR 2022/12/08 12:53 UTC NOAA

TRENTON MERCER COUNTY AIRPORT , NJ, United States (KTTN) 40-17N 074-49W 59M
Dec 08, 2022 - 07:53 AM EST / 2022.12.08 1253 UTC
Wind: Calm:0
Visibility: 10 mile(s):0
Sky conditions: clear
Temperature: 48.0 F (8.9 C)
Dew Point: 39.0 F (3.9 C)
Relative Humidity: 70%
Pressure (altimeter): 30.24 in. Hg (1024 hPa)
ob: KTTN 081253Z 00000KT 10SM CLR 09/04 A3024 RMK AO2 SLP235 T00890039
cycle: 13

Station Type Date Time Source
KTTN TAF 2022/12/08 12:22 UTC NOAA

TAF KTTN 081120Z 0812/0912 33007KT P6SM FEW040 SCT250
FM081300 34010G18KT P6SM SCT040 BKN150
FM082200 35006KT P6SM BKN200
FM090600 01005KT P6SM SCT250

Example: see airport list